Wind EuroAirport

Messzeit Windrichtung Windgeschwindigkeit [Knoten] Rückenwind Nordpiste [Knoten] METAR
2021-04-15 00:00 N 350° 5 5 LFSB 142200Z AUTO 35005KT 9999 BKN056 OVC074 03/M00 Q1026 NOSIG
2021-04-14 23:30 NW 320° 6 6 LFSB 142130Z AUTO 32006KT 9999 BKN056 OVC068 04/M00 Q1026 NOSIG
2021-04-14 23:00 N 350° 6 6 LFSB 142100Z AUTO 35006KT 9999 BKN056 OVC084 04/M00 Q1026 NOSIG
2021-04-14 22:30 NW 330° 5 5 LFSB 142030Z AUTO 33005KT 9999 BKN056 BKN066 OVC076 04/M00 Q1026 NOSIG
2021-04-14 22:00 NW 320° 6 6 LFSB 142000Z AUTO 32006KT CAVOK 04/M01 Q1026 NOSIG
2021-04-14 21:30 NW 310° 5 4 LFSB 141930Z AUTO 31005KT 9999 FEW054 SCT070 BKN092 04/M01 Q1026 NOSIG
2021-04-14 21:00 - 3 - LFSB 141900Z AUTO VRB03KT CAVOK 06/M02 Q1025 NOSIG
2021-04-14 20:30 NO 40°
(360°–90°)
3 0–3 LFSB 141830Z AUTO 04003KT 360V090 9999 SCT046 BKN056 OVC076 07/M02 Q1025 NOSIG
2021-04-14 20:00 NO 30°
(350°–60°)
9 2–9 LFSB 141800Z AUTO 03009KT 350V060 9999 FEW028 SCT047 BKN054 07/M02 Q1025 NOSIG
2021-04-14 19:30 N 10°
(340°–40°)
9 5–9 LFSB 141730Z AUTO 01009KT 340V040 9999 FEW020 OVC058 08/M03 Q1025 NOSIG
2021-04-14 19:00 var 360° 10 9 LFSB 141700Z 36010KT 9999 FEW035 SCT060 BKN080 08/M03 Q1025 NOSIG
2021-04-14 18:30 NW 300°
(260°–320°)
7 1–7 LFSB 141630Z 30007KT 260V320 9999 FEW030 FEW050TCU SCT060 BKN080 07/M01 Q1025 BECMG FEW035 BKN070
2021-04-14 18:00 var 360°
(300°–60°)
12 2–12 LFSB 141600Z 36012KT 300V060 9999 -SHRA FEW030 FEW050TCU SCT060 BKN080 07/M01 Q1025 NOSIG
2021-04-14 17:30 NO 30°
(360°–60°)
12 2–11 LFSB 141530Z 03012KT 360V060 9999 VCSH FEW035 FEW050TCU SCT060 BKN080 08/M01 Q1025 NOSIG
2021-04-14 17:00 var 360°
(330°–40°)
11 6–11 LFSB 141500Z 36011KT 330V040 9999 VCSH FEW040 FEW050TCU SCT070 BKN085 09/M03 Q1025 NOSIG
2021-04-14 16:30 var 360° 10 9 LFSB 141430Z 36010KT 9999 FEW050 SCT070 BKN085 09/M03 Q1024 TEMPO FEW050TCU BKN065
2021-04-14 16:00 N 20°
(360°–60°)
10 2–9 LFSB 141400Z 02010KT 360V060 9999 VCSH FEW050 FEW060TCU SCT070 BKN085 10/M03 Q1025 NOSIG
2021-04-14 15:30 var 360°
(330°–40°)
12 6–12 LFSB 141330Z 36012KT 330V040 9999 VCSH FEW050 FEW055TCU BKN080 09/M04 Q1025 NOSIG
2021-04-14 15:00 var 360° 10 9 LFSB 141300Z 36010KT 9999 FEW050 BKN075 09/M03 Q1025 TEMPO FEW050TCU BKN060
2021-04-14 14:30 N 20°
(350°–70°)
9 0–9 LFSB 141230Z 02009KT 350V070 9999 FEW050 BKN070 09/M05 Q1025 TEMPO FEW050TCU BKN060
2021-04-14 14:00 N 340°
(290°–10°)
8 5–8 LFSB 141200Z 34008KT 290V010 9999 FEW050 BKN070 09/M03 Q1025 TEMPO FEW050TCU BKN060
2021-04-14 13:30 N 20°
(320°–40°)
8 4–8 LFSB 141130Z 02008KT 320V040 9999 SCT050 BKN070 08/M05 Q1025 TEMPO FEW050TCU BKN060
2021-04-14 13:00 N 350°
(270°–80°)
7 0–7 LFSB 141100Z 35007KT 270V080 9999 FEW050 SCT065 09/M03 Q1026 NOSIG
2021-04-14 12:30 N 20°
(20°–110°)
5 0–4 LFSB 141030Z 02005KT 020V110 9999 FEW045 SCT060 09/M04 Q1026 NOSIG
2021-04-14 12:00 - 5 - LFSB 141000Z VRB05KT 9999 FEW040 07/M03 Q1027 NOSIG
2021-04-14 11:30 NW 330°
(280°–360°)
6 3–6 LFSB 140930Z 33006KT 280V360 9999 FEW035 07/M02 Q1027 NOSIG
2021-04-14 11:00 N 10°
(340°–40°)
6 3–6 LFSB 140900Z 01006KT 340V040 9999 FEW035 06/M02 Q1027 NOSIG
2021-04-14 10:30 NW 330° 8 8 LFSB 140830Z 33008KT 9999 FEW030 05/M01 Q1027 NOSIG
2021-04-14 10:00 var 360°
(330°–30°)
6 4–6 LFSB 140800Z 36006KT 330V030 9999 FEW025 04/M01 Q1027 NOSIG
2021-04-14 09:30 NW 320°
(290°–10°)
3 2–3 LFSB 140730Z 32003KT 290V010 9999 FEW020 03/M02 Q1027 NOSIG
2021-04-14 09:00 NW 330°
(300°–360°)
6 5–6 LFSB 140700Z 33006KT 300V360 9999 FEW010 02/M01 Q1028 NOSIG
2021-04-14 08:30 NW 320°
(290°–350°)
4 3–4 LFSB 140630Z 32004KT 290V350 9999 FEW007 01/M02 Q1027 NOSIG
2021-04-14 08:00 NW 320° 3 3 LFSB 140600Z 32003KT 9999 FEW005 M01/M02 Q1027 NOSIG
2021-04-14 07:30 - 0 - LFSB 140530Z 00000KT 9999 FEW004 M02/M03 Q1027 NOSIG
2021-04-14 07:00 NW 330° 2 2 LFSB 140500Z 33002KT 9999 FEW004 M02/M03 Q1027 NOSIG
2021-04-14 06:30 NW 310° 1 1 LFSB 140430Z AUTO 31001KT CAVOK M02/M03 Q1027 NOSIG
2021-04-14 06:00 - 2 - LFSB 140400Z AUTO VRB02KT 9000 NSC M02/M03 Q1027 NOSIG
2021-04-14 05:30 - 2 - LFSB 140330Z AUTO VRB02KT CAVOK M02/M03 Q1027 NOSIG
2021-04-14 05:00 W 260° 2 - LFSB 140300Z AUTO 26002KT CAVOK M01/M03 Q1027 NOSIG
2021-04-14 04:30 NW 300° 3 2 LFSB 140230Z AUTO 30003KT CAVOK M01/M03 Q1027 NOSIG
2021-04-14 04:00 NW 300° 3 2 LFSB 140200Z AUTO 30003KT CAVOK M01/M02 Q1027 NOSIG
2021-04-14 03:30 NW 310° 3 3 LFSB 140130Z AUTO 31003KT CAVOK M01/M02 Q1028 NOSIG
2021-04-14 03:00 W 290° 2 1 LFSB 140100Z AUTO 29002KT CAVOK 00/M02 Q1028 NOSIG
2021-04-14 02:30 NW 300° 3 2 LFSB 140030Z AUTO 30003KT CAVOK 01/M01 Q1028 NOSIG
2021-04-14 02:00 NW 320° 5 5 LFSB 140000Z AUTO 32005KT CAVOK 01/M01 Q1028 NOSIG
2021-04-14 01:30 NW 320° 6 6 LFSB 132330Z AUTO 32006KT CAVOK 02/M00 Q1028 NOSIG
2021-04-14 01:00 - 2 - LFSB 132300Z AUTO VRB02KT CAVOK 03/01 Q1028 NOSIG
2021-04-14 00:30 NO 50° 4 1 LFSB 132230Z AUTO 05004KT CAVOK 03/00 Q1029 NOSIG